Time;durP1;ratioP1;P1;durP2;ratioP2;P2;SDS_P1;SDS_P2;PMS_P1;PMS_P2;Temp;Humidity;BMP_temperature;BMP_pressure;BME280_temperature;BME280_humidity;BME280_pressure;Samples;Min_cycle;Max_cycle;Signal;HPM_P1;HPM_P2
2022/05/18 03:55:26;;;;;;;5.28;2.72;;;;;;;12.88;90.94;101010.84;5928348;27;20476;-80
2022/05/18 03:58:30;;;;;;;3.95;2.70;;;;;;;12.94;91.83;101025.50;5381810;33;33667;-82
2022/05/18 04:01:33;;;;;;;3.42;2.97;;;;;;;12.96;91.66;101034.28;5381760;33;33891;-82
2022/05/18 04:04:36;;;;;;;3.50;2.78;;;;;;;12.96;91.94;101036.13;5381062;33;33640;-82
2022/05/18 04:07:42;;;;;;;5.50;2.78;;;;;;;12.99;93.38;101047.44;5381235;33;33494;-82
2022/05/18 04:10:46;;;;;;;3.45;3.15;;;;;;;12.99;95.41;101052.84;5381469;33;33383;-82
2022/05/18 04:13:48;;;;;;;13.18;3.20;;;;;;;13.07;95.29;101058.19;5382849;33;33602;-82
2022/05/18 04:16:51;;;;;;;3.47;3.05;;;;;;;13.14;95.85;101059.19;5384079;33;33702;-81
2022/05/18 04:19:55;;;;;;;3.83;2.53;;;;;;;13.25;93.86;101068.78;5382563;33;33514;-82
2022/05/18 04:22:58;;;;;;;4.12;2.45;;;;;;;13.26;93.27;101075.03;5381248;33;33612;-82
2022/05/18 04:26:01;;;;;;;3.92;3.00;;;;;;;13.31;92.95;101078.06;5381510;33;33521;-82
2022/05/18 04:29:04;;;;;;;7.47;3.45;;;;;;;13.37;92.64;101083.56;5381380;33;34476;-82
2022/05/18 04:32:07;;;;;;;3.95;3.12;;;;;;;13.32;93.09;101088.69;5381037;33;34823;-82
2022/05/18 04:35:13;;;;;;;3.83;2.95;;;;;;;13.31;91.46;101094.28;5380765;33;33530;-82
2022/05/18 04:38:20;;;;;;;3.00;2.65;;;;;;;13.39;91.79;101100.44;5381217;33;33580;-82
2022/05/18 04:41:30;;;;;;;3.28;2.70;;;;;;;13.36;88.93;101098.09;5381211;33;33542;-82
2022/05/18 04:44:33;;;;;;;2.70;2.50;;;;;;;13.42;91.71;101111.94;5380877;33;34160;-82
2022/05/18 04:47:36;;;;;;;3.17;2.92;;;;;;;13.51;89.97;101110.88;5380842;33;34369;-82
2022/05/18 04:50:39;;;;;;;5.12;2.97;;;;;;;13.56;88.60;101116.59;5381397;33;34120;-82
2022/05/18 04:53:42;;;;;;;2.92;2.62;;;;;;;13.71;88.03;101120.19;5381393;33;33631;-82
2022/05/18 04:56:45;;;;;;;4.05;2.83;;;;;;;13.87;85.90;101130.06;5365913;33;32476;-82
2022/05/18 04:59:48;;;;;;;3.35;2.90;;;;;;;14.02;84.45;101132.84;5378711;33;34382;-82
2022/05/18 05:02:55;;;;;;;2.47;2.28;;;;;;;14.15;81.56;101140.31;5364940;33;32122;-82
2022/05/18 05:06:00;;;;;;;2.37;2.10;;;;;;;14.37;77.08;101144.03;5365530;33;32049;-82
2022/05/18 05:09:03;;;;;;;3.08;2.20;;;;;;;14.54;78.62;101159.13;5378745;33;33405;-82
2022/05/18 05:12:08;;;;;;;2.85;2.40;;;;;;;14.70;76.64;101158.94;5379083;33;33383;-86
2022/05/18 05:15:11;;;;;;;4.53;2.78;;;;;;;14.72;75.61;101166.91;5382088;33;33836;-85
2022/05/18 05:18:14;;;;;;;3.17;2.05;;;;;;;14.43;69.11;101176.66;5385734;33;34920;-86
2022/05/18 05:21:17;;;;;;;2.42;1.85;;;;;;;14.60;72.15;101181.94;5381875;33;33174;-81
2022/05/18 05:24:21;;;;;;;3.05;2.00;;;;;;;14.35;68.13;101186.72;5377441;33;33176;-81
2022/05/18 05:27:24;;;;;;;2.97;1.77;;;;;;;14.36;68.30;101191.09;5364246;33;32364;-81
2022/05/18 05:30:27;;;;;;;2.15;1.92;;;;;;;14.42;65.87;101201.19;5378061;33;34099;-81
2022/05/18 05:33:31;;;;;;;1.65;1.52;;;;;;;14.71;66.98;101208.56;5377217;33;33525;-81
2022/05/18 05:36:34;;;;;;;2.12;1.90;;;;;;;14.88;64.16;101218.22;5377864;33;33574;-81
2022/05/18 05:39:37;;;;;;;2.62;1.80;;;;;;;14.80;64.48;101214.75;5374452;33;33384;-81
2022/05/18 05:42:40;;;;;;;4.00;1.20;;;;;;;14.84;62.63;101213.37;5375593;33;33193;-81
2022/05/18 05:46:04;;;;;;;1.70;1.52;;;;;;;14.87;61.24;101229.28;5360649;33;31927;-83
2022/05/18 05:49:10;;;;;;;1.40;1.30;;;;;;;15.08;63.16;101234.81;5376136;33;34344;-81
2022/05/18 05:52:13;;;;;;;3.42;1.50;;;;;;;14.84;62.55;101240.50;5376312;33;34332;-81
2022/05/18 05:55:16;;;;;;;1.50;1.40;;;;;;;15.10;61.36;101249.03;5378040;33;33364;-81
2022/05/18 05:58:19;;;;;;;4.22;1.50;;;;;;;15.31;60.97;101258.28;5377774;33;33572;-81
2022/05/18 06:01:22;;;;;;;1.77;1.55;;;;;;;15.42;60.80;101263.25;5374148;33;34184;-83
2022/05/18 06:04:30;;;;;;;3.65;1.42;;;;;;;15.43;59.70;101264.94;5371892;33;33946;-83
2022/05/18 06:07:33;;;;;;;1.73;1.45;;;;;;;15.22;60.04;101275.69;5362812;33;32805;-83
2022/05/18 06:10:38;;;;;;;1.52;1.40;;;;;;;15.10;57.17;101276.16;5377244;33;32993;-82
2022/05/18 06:13:41;;;;;;;1.25;1.15;;;;;;;15.25;56.78;101280.75;5377699;33;34264;-82
2022/05/18 06:16:46;;;;;;;1.67;1.45;;;;;;;15.35;58.98;101284.00;5377616;33;34258;-82
2022/05/18 06:19:49;;;;;;;1.08;1.02;;;;;;;15.24;55.72;101285.34;5377981;33;34241;-82
2022/05/18 06:22:52;;;;;;;1.30;1.20;;;;;;;15.40;56.08;101295.16;5362147;33;33605;-82
2022/05/18 06:26:00;;;;;;;1.70;1.20;;;;;;;15.39;51.64;101307.03;5368468;33;33187;-81
2022/05/18 06:29:04;;;;;;;1.50;1.40;;;;;;;15.34;53.16;101309.47;5385648;33;34383;-81
2022/05/18 06:32:07;;;;;;;1.40;1.12;;;;;;;15.42;52.80;101322.94;5387567;33;33834;-81
2022/05/18 06:35:11;;;;;;;2.35;1.48;;;;;;;15.45;54.07;101319.03;5379064;33;34497;-81
2022/05/18 06:38:15;;;;;;;1.30;0.98;;;;;;;15.56;53.42;101332.97;5376652;33;32048;-82
2022/05/18 06:41:24;;;;;;;1.30;1.08;;;;;;;15.57;51.84;101345.50;5377745;33;33204;-82
2022/05/18 06:44:27;;;;;;;1.40;1.00;;;;;;;15.46;53.07;101348.69;5377822;33;33505;-82
2022/05/18 06:47:31;;;;;;;1.60;1.10;;;;;;;15.50;52.75;101338.28;5366526;33;33485;-81
2022/05/18 06:50:33;;;;;;;2.28;1.50;;;;;;;15.70;54.58;101347.59;5374497;33;32761;-81
2022/05/18 06:53:36;;;;;;;1.35;1.25;;;;;;;15.94;52.39;101357.31;5373853;33;33159;-82
2022/05/18 06:56:42;;;;;;;1.60;1.30;;;;;;;15.86;51.25;101352.81;5377669;33;33488;-83
2022/05/18 06:59:45;;;;;;;1.83;1.10;;;;;;;15.76;51.69;101352.25;5372774;33;33299;-87
2022/05/18 07:02:50;;;;;;;1.52;1.23;;;;;;;15.79;53.02;101353.75;5386203;33;32768;-87
2022/05/18 07:05:53;;;;;;;3.30;1.40;;;;;;;16.07;54.28;101356.63;5382176;33;35028;-84
2022/05/18 07:08:57;;;;;;;1.40;1.30;;;;;;;16.32;52.25;101373.44;5365755;33;32219;-83
2022/05/18 07:12:00;;;;;;;1.65;1.40;;;;;;;16.33;52.65;101372.41;5379393;33;34092;-83
2022/05/18 07:15:07;;;;;;;1.85;1.60;;;;;;;16.42;53.57;101370.44;5378138;33;33024;-83
2022/05/18 07:18:11;;;;;;;1.60;1.50;;;;;;;16.60;50.91;101386.31;5375077;33;34239;-83
2022/05/18 07:21:15;;;;;;;1.77;1.40;;;;;;;16.55;53.70;101386.88;5374017;33;33109;-83
2022/05/18 07:24:19;;;;;;;1.60;1.45;;;;;;;16.57;50.81;101389.41;5369719;33;34368;-83
2022/05/18 07:27:22;;;;;;;1.20;1.15;;;;;;;16.72;53.39;101392.91;5365295;33;31821;-83
2022/05/18 07:30:25;;;;;;;3.25;1.83;;;;;;;16.81;50.70;101396.37;5361872;33;32475;-83
2022/05/18 07:33:29;;;;;;;1.50;1.33;;;;;;;16.92;50.55;101396.69;5385409;33;33474;-83
2022/05/18 07:36:32;;;;;;;1.70;1.60;;;;;;;17.23;49.38;101401.81;5381981;33;33448;-82
2022/05/18 07:39:36;;;;;;;1.50;1.10;;;;;;;17.20;49.94;101402.19;5370469;33;32784;-82
2022/05/18 07:42:39;;;;;;;1.37;1.27;;;;;;;17.42;50.19;101405.72;5381017;33;32819;-83
2022/05/18 07:45:42;;;;;;;1.65;1.30;;;;;;;17.42;47.85;101402.16;5377235;33;34174;-82
2022/05/18 07:48:45;;;;;;;1.37;1.02;;;;;;;17.44;46.07;101408.25;5361261;33;31804;-83
2022/05/18 07:51:47;;;;;;;2.45;1.30;;;;;;;17.52;44.07;101409.97;5362341;33;31723;-83
2022/05/18 07:54:51;;;;;;;1.35;1.25;;;;;;;17.60;44.79;101418.81;5361192;33;31719;-83
2022/05/18 07:57:54;;;;;;;2.40;1.33;;;;;;;17.59;43.53;101414.44;5376231;33;34523;-82
2022/05/18 08:00:57;;;;;;;1.75;1.00;;;;;;;17.73;42.77;101423.53;5371616;33;33385;-83
2022/05/18 08:03:59;;;;;;;0.90;0.90;;;;;;;17.33;41.84;101434.13;5357310;33;32760;-83
2022/05/18 08:07:02;;;;;;;2.12;1.12;;;;;;;17.51;42.43;101428.19;5374704;33;33462;-83
2022/05/18 08:16:50;;;;;;;1.12;1.10;;;;;;;17.65;43.09;101453.66;5430145;27;34286;-83
2022/05/18 08:19:53;;;;;;;1.10;1.00;;;;;;;17.40;41.00;101451.38;5377446;33;32945;-83
2022/05/18 08:22:56;;;;;;;1.20;0.98;;;;;;;17.46;41.74;101449.72;5364948;33;33406;-83
2022/05/18 08:25:59;;;;;;;2.10;1.30;;;;;;;17.65;43.85;101465.38;5357885;33;33253;-83
2022/05/18 08:29:04;;;;;;;1.77;1.33;;;;;;;17.88;43.05;101465.16;5359692;33;34181;-83
2022/05/18 08:32:07;;;;;;;1.85;1.17;;;;;;;17.59;44.42;101463.44;5357563;33;34842;-82
2022/05/18 08:35:11;;;;;;;1.73;1.15;;;;;;;17.33;43.71;101469.50;5359890;33;33228;-82
2022/05/18 08:38:16;;;;;;;1.33;1.00;;;;;;;17.90;43.66;101473.97;5358689;33;34311;-83
2022/05/18 08:41:42;;;;;;;2.30;1.40;;;;;;;18.18;41.52;101470.38;5363228;33;34211;-83
2022/05/18 08:44:46;;;;;;;3.55;1.23;;;;;;;18.23;42.82;101486.97;5348726;33;32088;-82
2022/05/18 08:48:25;;;;;;;2.62;1.27;;;;;;;18.28;42.19;101476.31;5365075;33;34946;-83
2022/05/18 08:51:48;;;;;;;1.37;1.00;;;;;;;18.42;44.04;101482.62;5356679;33;33404;-83
2022/05/18 08:54:51;;;;;;;1.05;1.00;;;;;;;18.55;41.42;101479.97;5345145;33;32720;-83
2022/05/18 08:57:58;;;;;;;2.95;1.20;;;;;;;18.97;40.68;101480.78;5343011;33;32695;-84
2022/05/18 09:01:12;;;;;;;0.98;0.85;;;;;;;18.75;39.37;101485.56;5343838;33;32477;-84
2022/05/18 09:04:15;;;;;;;1.10;0.98;;;;;;;18.82;40.28;101480.09;5355397;33;32982;-85
2022/05/18 09:07:21;;;;;;;1.67;1.10;;;;;;;18.71;38.37;101491.56;5359838;33;34021;-83
2022/05/18 09:10:30;;;;;;;1.67;1.05;;;;;;;18.58;40.71;101485.03;5346226;33;32088;-84
2022/05/18 09:13:34;;;;;;;1.37;0.82;;;;;;;18.78;40.01;101487.87;5360340;33;33135;-83
2022/05/18 09:16:56;;;;;;;0.90;0.70;;;;;;;18.93;41.34;101484.97;5348306;33;32061;-83
2022/05/18 09:20:12;;;;;;;0.70;0.70;;;;;;;19.30;37.40;101485.44;5339025;33;32694;-83
2022/05/18 09:24:03;;;;;;;1.20;1.10;;;;;;;19.19;34.96;101486.09;5338378;33;32559;-83
2022/05/18 09:27:26;;;;;;;0.65;0.55;;;;;;;19.08;36.44;101486.69;5316621;33;31877;-83
2022/05/18 09:30:52;;;;;;;0.65;0.65;;;;;;;19.06;35.81;101488.78;5349018;33;34099;-87
2022/05/18 09:34:28;;;;;;;0.70;0.70;;;;;;;19.19;35.77;101497.00;5332957;33;32032;-84
2022/05/18 09:37:45;;;;;;;2.15;0.70;;;;;;;19.51;34.05;101481.69;5342265;33;35514;-83
2022/05/18 09:40:50;;;;;;;0.75;0.75;;;;;;;19.27;32.39;101477.66;5334706;33;32470;-83
2022/05/18 09:44:00;;;;;;;0.77;0.62;;;;;;;19.44;34.43;101492.59;5345456;33;33216;-83
2022/05/18 09:47:04;;;;;;;1.37;0.80;;;;;;;19.70;33.48;101485.50;5352370;33;33182;-84
2022/05/18 09:50:09;;;;;;;0.95;0.82;;;;;;;19.77;33.52;101474.56;5343193;33;32954;-83
2022/05/18 09:53:15;;;;;;;2.35;0.60;;;;;;;20.05;32.22;101482.50;5351749;33;33515;-83
2022/05/18 09:56:36;;;;;;;1.33;0.85;;;;;;;19.94;34.39;101484.00;5354845;33;33785;-83
2022/05/18 09:59:52;;;;;;;1.08;0.98;;;;;;;19.97;32.30;101499.13;5344033;33;33148;-83
2022/05/18 10:09:48;;;;;;;0.70;0.70;;;;;;;19.70;32.47;101489.06;5353243;33;33504;-84
2022/05/18 10:12:54;;;;;;;0.95;0.95;;;;;;;19.72;34.37;101488.88;5328813;33;31055;-83
2022/05/18 10:16:20;;;;;;;1.35;1.25;;;;;;;19.91;32.47;101500.81;5349214;33;33273;-83
2022/05/18 10:19:45;;;;;;;1.10;0.70;;;;;;;20.44;31.79;101505.31;5346558;33;33914;-83
2022/05/18 10:22:49;;;;;;;0.57;0.57;;;;;;;20.62;32.08;101502.75;5349998;33;33069;-83
2022/05/18 10:25:52;;;;;;;0.90;0.77;;;;;;;19.67;31.80;101488.66;5342329;33;31777;-84
2022/05/18 10:28:59;;;;;;;1.77;0.80;;;;;;;20.09;33.24;101491.94;5358241;33;33197;-83
2022/05/18 10:32:04;;;;;;;0.95;0.75;;;;;;;20.40;28.91;101485.78;5348229;33;33618;-83
2022/05/18 10:35:07;;;;;;;1.00;0.73;;;;;;;20.92;28.74;101489.38;5337842;33;32245;-84
2022/05/18 10:38:22;;;;;;;0.50;0.50;;;;;;;21.52;28.64;101478.84;5331288;33;32208;-83
2022/05/18 10:41:28;;;;;;;1.67;0.70;;;;;;;21.87;29.37;101474.75;5323824;33;32012;-84
2022/05/18 10:44:36;;;;;;;2.50;0.70;;;;;;;22.07;24.92;101477.28;5345377;33;35401;-84
2022/05/18 10:47:39;;;;;;;1.37;1.00;;;;;;;22.45;24.53;101473.50;5341766;33;32383;-83
2022/05/18 10:50:43;;;;;;;0.65;0.65;;;;;;;22.98;24.66;101468.16;5337495;33;33518;-84
2022/05/18 10:53:47;;;;;;;2.25;0.65;;;;;;;23.11;24.45;101474.53;5334923;33;33366;-83
2022/05/18 10:56:51;;;;;;;0.68;0.52;;;;;;;23.18;24.04;101470.63;5340765;33;31858;-83
2022/05/18 11:00:02;;;;;;;0.40;0.40;;;;;;;23.81;22.57;101471.06;5333511;33;32909;-84
2022/05/18 11:03:08;;;;;;;0.88;0.40;;;;;;;23.35;22.51;101465.28;5357751;33;33252;-84
2022/05/18 11:06:16;;;;;;;0.30;0.30;;;;;;;23.42;20.13;101473.41;5340375;33;32824;-87
2022/05/18 11:09:30;;;;;;;0.30;0.30;;;;;;;24.36;22.51;101463.22;5348324;33;33495;-82
2022/05/18 11:12:48;;;;;;;0.32;0.28;;;;;;;24.13;20.94;101457.78;5353571;33;31528;-83
2022/05/18 11:16:12;;;;;;;0.68;0.45;;;;;;;24.39;20.48;101437.13;5362603;33;35062;-83
2022/05/18 11:19:40;;;;;;;0.85;0.52;;;;;;;25.24;20.08;101440.97;5351368;33;34172;-83
2022/05/18 11:22:52;;;;;;;0.63;0.53;;;;;;;26.34;24.37;101447.59;5335672;33;31503;-83
2022/05/18 11:26:17;;;;;;;0.45;0.45;;;;;;;27.18;21.58;101445.53;5329463;33;32580;-83
2022/05/18 11:30:08;;;;;;;0.52;0.47;;;;;;;27.91;20.82;101440.28;5345744;33;33510;-83
2022/05/18 11:33:35;;;;;;;0.40;0.40;;;;;;;28.18;18.94;101426.28;5347725;33;33592;-85
2022/05/18 11:36:52;;;;;;;2.33;0.60;;;;;;;29.54;19.30;101429.63;5324871;33;32025;-84
2022/05/18 11:39:56;;;;;;;;;;;;;;;30.52;16.73;101429.34;5345829;33;33457;-84
2022/05/18 11:43:00;;;;;;;0.40;0.40;;;;;;;30.68;16.14;101430.91;5341635;33;33858;-83
2022/05/18 11:46:21;;;;;;;0.98;0.60;;;;;;;30.79;17.08;101428.94;5342707;33;34294;-83
2022/05/18 11:49:54;;;;;;;1.02;0.62;;;;;;;30.93;16.05;101425.22;5354262;33;33861;-82
2022/05/18 11:53:42;;;;;;;1.45;0.62;;;;;;;31.20;16.60;101418.31;5346132;33;34917;-83
2022/05/18 11:57:02;;;;;;;0.88;0.55;;;;;;;31.40;17.12;101418.16;5319840;33;33935;-83
2022/05/18 12:00:44;;;;;;;0.57;0.37;;;;;;;31.78;17.53;101423.06;5345345;33;34703;-85
2022/05/18 12:04:08;;;;;;;0.40;0.40;;;;;;;32.66;15.24;101429.25;5326674;33;32072;-84
2022/05/18 12:07:14;;;;;;;0.10;0.10;;;;;;;33.07;11.05;101425.88;5329041;33;32253;-84
2022/05/18 12:10:25;;;;;;;1.37;0.30;;;;;;;33.88;11.00;101425.56;5329661;33;32485;-84
2022/05/18 12:13:32;;;;;;;0.50;0.20;;;;;;;34.79;10.32;101425.56;5327793;33;32187;-84
2022/05/18 12:17:00;;;;;;;0.37;0.20;;;;;;;34.47;8.91;101421.78;5328389;33;32148;-84
2022/05/18 12:20:17;;;;;;;0.45;0.37;;;;;;;34.87;8.17;101422.03;5342818;33;33372;-83
2022/05/18 12:23:29;;;;;;;0.20;0.05;;;;;;;34.45;9.17;101417.66;5337254;33;32568;-83
2022/05/18 12:26:36;;;;;;;0.28;0.28;;;;;;;34.53;8.20;101423.34;5327377;33;32677;-84
2022/05/18 12:29:40;;;;;;;0.17;0.17;;;;;;;35.08;10.09;101435.56;5340135;33;33486;-83
2022/05/18 12:32:45;;;;;;;1.70;0.20;;;;;;;34.93;8.30;101425.53;5341115;33;33585;-83
2022/05/18 12:36:05;;;;;;;0.30;0.30;;;;;;;34.82;7.76;101433.34;5328038;33;33082;-87
2022/05/18 12:39:31;;;;;;;0.10;0.10;;;;;;;34.57;8.55;101426.34;5342188;33;32991;-84
2022/05/18 12:42:40;;;;;;;0.10;0.10;;;;;;;35.10;8.30;101428.50;5327974;33;31712;-83
2022/05/18 12:45:47;;;;;;;0.20;0.20;;;;;;;35.64;7.42;101426.53;5328331;33;31978;-83
2022/05/18 12:49:04;;;;;;;0.20;0.13;;;;;;;36.33;9.12;101437.19;5341846;33;33098;-84
2022/05/18 12:52:35;;;;;;;0.20;0.13;;;;;;;35.72;7.77;101429.69;5329026;33;32949;-84
2022/05/18 12:55:57;;;;;;;0.22;0.22;;;;;;;37.04;6.50;101429.69;5342480;33;34114;-84
2022/05/18 12:59:05;;;;;;;0.10;0.10;;;;;;;37.64;6.20;101437.16;5341143;33;33515;-84
2022/05/18 13:02:32;;;;;;;0.20;0.20;;;;;;;36.22;6.88;101438.66;5329778;33;31796;-83
2022/05/18 13:05:46;;;;;;;0.40;0.40;;;;;;;36.97;6.93;101436.59;5338900;33;138102;-84
2022/05/18 13:09:00;;;;;;;0.10;0.10;;;;;;;37.37;6.26;101424.31;5342857;33;33778;-84
2022/05/18 13:12:28;;;;;;;0.20;0.10;;;;;;;36.37;6.83;101416.91;5343178;33;33484;-84
2022/05/18 13:15:39;;;;;;;0.37;0.30;;;;;;;37.13;6.22;101419.25;5342787;33;33639;-84
2022/05/18 13:18:42;;;;;;;0.98;0.28;;;;;;;37.18;7.30;101419.91;5331469;33;31901;-83
2022/05/18 13:21:53;;;;;;;0.32;0.30;;;;;;;35.98;7.15;101421.38;5330334;33;32100;-83
2022/05/18 13:24:59;;;;;;;0.13;0.10;;;;;;;36.92;6.65;101421.91;5341646;33;33410;-82
2022/05/18 13:28:07;;;;;;;0.28;0.20;;;;;;;36.88;7.38;101423.72;5330179;33;33717;-84
2022/05/18 13:31:11;;;;;;;1.25;0.20;;;;;;;36.10;6.22;101422.44;5342873;33;33128;-83
2022/05/18 13:34:22;;;;;;;0.20;0.20;;;;;;;36.85;7.69;101415.94;5341446;33;33050;-83
2022/05/18 13:37:28;;;;;;;0.55;0.37;;;;;;;38.40;6.29;101419.44;5342685;33;34123;-83
2022/05/18 13:40:58;;;;;;;;;;;;;;;37.58;6.23;101416.84;5331007;33;33463;-82
2022/05/18 13:44:03;;;;;;;0.10;0.10;;;;;;;38.79;6.91;101414.50;5343265;33;32749;-82
2022/05/18 13:47:10;;;;;;;1.12;0.35;;;;;;;37.01;6.38;101405.91;5328808;33;31815;-83
2022/05/18 13:50:15;;;;;;;;;;;;;;;34.67;7.71;101411.31;5329182;33;31962;-83
2022/05/18 13:53:24;;;;;;;0.60;0.22;;;;;;;35.39;8.13;101411.19;5329152;33;32038;-83
2022/05/18 13:56:33;;;;;;;0.28;0.20;;;;;;;35.61;7.04;101407.56;5342056;33;33648;-87
2022/05/18 13:59:45;;;;;;;1.00;0.30;;;;;;;34.78;7.93;101401.56;5342138;33;33732;-83
2022/05/18 14:02:57;;;;;;;0.17;0.17;;;;;;;34.58;9.13;101397.25;5339787;33;32159;-82
2022/05/18 14:06:23;;;;;;;0.43;0.25;;;;;;;34.19;9.37;101406.22;5358486;33;33464;-82
2022/05/18 14:09:44;;;;;;;0.37;0.30;;;;;;;32.33;10.45;101400.44;5360224;33;33328;-81
2022/05/18 14:12:54;;;;;;;0.30;0.30;;;;;;;29.72;11.81;101394.91;5360019;33;33943;-82
2022/05/18 14:15:57;;;;;;;0.20;0.20;;;;;;;28.28;14.26;101404.16;5360023;33;33109;-82
2022/05/18 14:19:27;;;;;;;0.20;0.20;;;;;;;26.95;14.83;101400.50;5359413;33;35408;-82
2022/05/18 14:22:56;;;;;;;0.60;0.50;;;;;;;25.90;16.03;101403.44;5346171;33;33197;-82
2022/05/18 14:26:04;;;;;;;0.52;0.52;;;;;;;25.14;16.36;101407.75;5345783;33;34114;-81
2022/05/18 14:29:11;;;;;;;0.40;0.40;;;;;;;24.50;16.11;101405.19;5359475;33;33494;-81
2022/05/18 14:32:22;;;;;;;0.57;0.47;;;;;;;24.26;16.24;101407.16;5359740;33;34366;-81
2022/05/18 14:35:37;;;;;;;0.80;0.30;;;;;;;23.82;16.60;101409.53;5364282;33;34449;-86
2022/05/18 14:38:47;;;;;;;0.52;0.35;;;;;;;23.49;16.76;101414.53;5349521;33;32076;-81
2022/05/18 14:41:53;;;;;;;0.77;0.37;;;;;;;23.34;17.07;101416.87;5345273;33;33145;-82
2022/05/18 14:45:05;;;;;;;0.30;0.30;;;;;;;22.96;18.11;101411.78;5341643;33;33544;-82
2022/05/18 14:48:26;;;;;;;0.50;0.40;;;;;;;22.73;17.84;101407.06;5342719;33;33332;-82
2022/05/18 14:51:44;;;;;;;0.50;0.43;;;;;;;22.70;16.10;101419.34;5329428;33;32632;-82
2022/05/18 14:54:49;;;;;;;0.88;0.50;;;;;;;22.47;17.46;101419.25;5343579;33;33514;-82
2022/05/18 14:57:54;;;;;;;0.43;0.37;;;;;;;22.33;16.63;101413.91;5330346;33;31498;-82
2022/05/18 15:01:03;;;;;;;0.35;0.35;;;;;;;22.18;16.58;101416.22;5329427;33;32431;-82
2022/05/18 15:04:37;;;;;;;0.30;0.30;;;;;;;21.93;16.22;101410.78;5330348;33;32260;-82
2022/05/18 15:07:46;;;;;;;1.95;0.75;;;;;;;21.88;17.61;101411.47;5345113;33;33183;-82
2022/05/18 15:10:53;;;;;;;1.95;0.73;;;;;;;21.91;17.06;101411.00;5335055;33;31706;-82
2022/05/18 15:14:19;;;;;;;2.47;0.50;;;;;;;21.69;16.87;101405.12;5336733;33;32571;-83
2022/05/18 15:17:41;;;;;;;0.40;0.40;;;;;;;21.57;18.02;101406.94;5321253;33;32110;-83
2022/05/18 15:20:45;;;;;;;0.55;0.55;;;;;;;21.37;17.47;101398.88;5330522;33;33016;-84
2022/05/18 15:23:54;;;;;;;0.50;0.50;;;;;;;21.32;18.74;101404.16;5330987;33;32321;-82
2022/05/18 15:26:57;;;;;;;0.40;0.40;;;;;;;21.28;19.53;101406.53;5336633;33;31806;-82
2022/05/18 15:30:06;;;;;;;0.52;0.52;;;;;;;21.24;20.65;101418.16;5338315;33;31620;-82
2022/05/18 15:33:11;;;;;;;0.90;0.43;;;;;;;21.17;17.95;101420.94;5333092;33;32223;-82
2022/05/18 15:36:16;;;;;;;1.10;0.65;;;;;;;21.02;18.75;101418.53;5329709;33;32361;-83
2022/05/18 15:39:19;;;;;;;2.35;0.60;;;;;;;20.86;18.29;101410.03;5343418;33;33770;-82
2022/05/18 15:42:27;;;;;;;1.10;0.73;;;;;;;20.66;18.36;101419.19;5343403;33;33172;-82
2022/05/18 15:45:30;;;;;;;0.57;0.50;;;;;;;20.67;18.49;101414.53;5329343;33;32116;-83
2022/05/18 15:48:33;;;;;;;0.55;0.40;;;;;;;20.56;18.63;101408.72;5329594;33;32669;-82
2022/05/18 15:51:36;;;;;;;0.60;0.60;;;;;;;20.43;18.23;101408.75;5342928;33;34352;-83
2022/05/18 15:54:44;;;;;;;0.55;0.50;;;;;;;20.45;18.22;101412.13;5342991;33;34478;-83
2022/05/18 15:57:47;;;;;;;0.40;0.40;;;;;;;20.39;18.92;101413.81;5342991;33;33576;-83
2022/05/18 16:00:50;;;;;;;0.93;0.40;;;;;;;20.26;18.87;101408.41;5329691;33;33217;-82
